Ship Status Report: callsign HO2750

sailwx.info

Track history (hours):
 
Tides and Currents Weather Stations Pressure Air Temp Water Temp Dewpoint Dewpoint Depression Visibility Wind Speed Wind Dir Waves Ship Positions

Callsign HO2750 (name unknown)

Last reported at 2018-May-08 20:42 UTC. Time now 2018-Jun-24 12:55 UTC.
Position N 26°04' W 080°08'.
Warning: this ship's position is 46 days out of date.

Date/timePositionNaut miles runAvg speedWind from/ knotsBaromVisibWave heightAir tempDewpointWater temp
2018-May-08 20:42N 26°04' W 080°08'0 0.0
2018-May-08 20:30N 26°04' W 080°08'0 0.0
2018-May-08 20:00N 26°04' W 080°08'0 0.0
2018-May-08 19:30N 26°04' W 080°08'0 0.0
2018-May-08 19:00N 26°04' W 080°08'0 0.0
2018-May-08 18:30N 26°04' W 080°08'2 3.7
2018-May-08 18:00N 26°05' W 080°07'4 8.9
2018-May-08 17:30N 26°04' W 080°02'510.3
2018-May-08 17:00N 26°02' W 079°57'510.6
2018-May-08 16:30N 26°01' W 079°51'510.6
2018-May-08 16:00N 25°59' W 079°45'6 0.1
2018-May-06 20:26N 26°04' W 079°44'4 9.1
2018-May-06 20:00N 26°05' W 079°48'5 9.2
2018-May-06 19:30N 26°05' W 079°53'5 9.5
2018-May-06 19:00N 26°05' W 079°58'5 9.6
2018-May-06 18:30N 26°05' W 080°04'3 5.9
2018-May-06 18:00N 26°04' W 080°07'1 2.0
2018-May-06 17:30N 26°04' W 080°08'0 0.0
2018-May-06 17:00N 26°04' W 080°08'0 0.0
2018-May-06 16:30N 26°04' W 080°08'0 0.0
2018-May-06 16:00N 26°04' W 080°08'0 0.0
2018-May-06 15:30N 26°04' W 080°08'0 0.0
2018-May-06 15:00N 26°04' W 080°08'0 0.0
2018-May-06 14:30N 26°04' W 080°08'0 0.0
2018-May-06 14:00N 26°04' W 080°08'0 0.0
2018-May-06 13:30N 26°04' W 080°08'0 0.0
2018-May-06 13:00N 26°04' W 080°08'0 0.0
2018-May-06 12:30N 26°04' W 080°08'0 0.0
2018-May-06 12:00N 26°04' W 080°08'2 3.0
2018-May-06 11:30N 26°05' W 080°07'4 8.4
2018-May-06 11:00N 26°06' W 080°02'5 9.0
2018-May-06 10:30N 26°05' W 079°57'4 8.6
2018-May-06 10:00N 26°03' W 079°53'4 8.4
2018-May-06 09:30N 26°02' W 079°48'4 8.5
2018-May-06 08:59N 26°01' W 079°44'4 8.4
2018-May-06 08:28N 25°59' W 079°39'  
2018-May-03 20:58N 26°26' W 079°59'510.0
2018-May-03 20:27N 26°21' W 080°00'4 9.7
2018-May-03 20:00N 26°17' W 080°01'5 9.3
2018-May-03 19:30N 26°12' W 080°03'4 9.0
2018-May-03 19:00N 26°08' W 080°04'4 7.5
2018-May-03 18:30N 26°05' W 080°07'2 3.6
2018-May-03 18:00N 26°04' W 080°08'0 0.0
2018-May-03 17:30N 26°04' W 080°08'0 0.0
2018-May-03 17:00N 26°04' W 080°08'0 0.0
2018-May-03 16:30N 26°04' W 080°08'0 0.0
2018-May-03 16:00N 26°04' W 080°08'0 0.0
2018-May-03 15:30N 26°04' W 080°08'0 0.0
2018-May-03 15:00N 26°04' W 080°08'0 0.0
2018-May-03 14:30N 26°04' W 080°08'0 0.0
2018-May-03 14:00N 26°04' W 080°08'0 0.0
2018-May-03 13:30N 26°04' W 080°08'0 0.0
2018-May-03 13:00N 26°04' W 080°08'0 0.0
2018-May-03 12:30N 26°04' W 080°08'0 0.0
2018-May-03 12:00N 26°04' W 080°08'1 2.7
2018-May-03 11:30N 26°05' W 080°07'3 6.8
2018-May-03 11:00N 26°05' W 080°03'4 8.5
2018-May-03 10:30N 26°05' W 079°58'3 6.9
2018-May-03 10:00N 26°05' W 079°55'4 6.9
2018-May-03 09:30N 26°05' W 079°51'3 7.0
2018-May-03 09:00N 26°04' W 079°47'4 7.5
2018-May-03 08:30N 26°04' W 079°43'4 7.6
2018-May-03 07:58N 26°03' W 079°38'2 0.1
2018-May-02 00:21N 26°02' W 079°39'3 7.5
2018-May-01 23:58N 26°02' W 079°43'3 7.2
2018-May-01 23:30N 26°03' W 079°46'3 6.0
2018-May-01 23:00N 26°04' W 079°49'4 7.5
2018-May-01 22:30N 26°04' W 079°54'4 7.9
2018-May-01 22:00N 26°04' W 079°58'4 8.1
2018-May-01 21:30N 26°05' W 080°02'4 8.2
2018-May-01 21:00N 26°05' W 080°07'2 4.1
2018-May-01 20:30N 26°04' W 080°08'0 0.0
2018-May-01 20:00N 26°04' W 080°08'0 0.0
2018-May-01 19:30N 26°04' W 080°08'0 0.0
2018-May-01 19:00N 26°04' W 080°08'0 0.0
2018-May-01 18:30N 26°04' W 080°08'0 0.0
2018-May-01 18:00N 26°04' W 080°08'0 0.0
2018-May-01 17:30N 26°04' W 080°08'0 0.0
2018-May-01 17:00N 26°04' W 080°08'0 0.0
2018-May-01 16:30N 26°04' W 080°08'0 0.0
2018-May-01 16:00N 26°04' W 080°08'1 1.8
2018-May-01 15:30N 26°04' W 080°07'3 6.4
2018-May-01 15:00N 26°05' W 080°04'4 8.2
2018-May-01 14:30N 26°06' W 079°59'3 6.3
2018-May-01 14:00N 26°08' W 079°56'3 5.8
2018-May-01 13:30N 26°09' W 079°53'4 7.2
2018-May-01 13:00N 26°10' W 079°49'3 6.5
2018-May-01 12:30N 26°11' W 079°46'4 7.0
2018-May-01 12:00N 26°12' W 079°42'3 6.7
2018-May-01 11:30N 26°13' W 079°39'3 6.3
2018-May-01 11:00N 26°14' W 079°35'3 6.2
2018-May-01 10:29N 26°15' W 079°32'69 7.3
2018-May-01 01:03N 26°07' W 078°16'010.3
2018-May-01 01:00N 26°07' W 078°15'510.4
2018-May-01 00:30N 26°05' W 078°10'510.4
2018-Apr-30 23:59N 26°03' W 078°04'510.2
2018-Apr-30 23:30N 26°01' W 077°59'510.2
2018-Apr-30 23:00N 25°59' W 077°54'510.6
2018-Apr-30 22:30N 25°57' W 077°48'510.6
2018-Apr-30 22:00N 25°56' W 077°43'3410.6
2018-Apr-30 18:45N 25°41' W 077°09'311.1
2018-Apr-30 18:29N 25°40' W 077°05'  
Track history (hours):
 
Tides and Currents Weather Stations Pressure Air Temp Water Temp Dewpoint Dewpoint Depression Visibility Wind Speed Wind Dir Waves Ship Positions

Callsign HO2750 (name unknown)

Last reported at 2018-May-08 20:42 UTC. Time now 2018-Jun-24 12:55 UTC.
Position N 26°04' W 080°08'.
Warning: this ship's position is 46 days out of date.

Date/timePositionNaut miles runAvg speedWind from/ knotsBaromVisibWave heightAir tempDewpointWater temp
2018-May-08 20:42N 26°04' W 080°08'0 0.0
2018-May-08 20:30N 26°04' W 080°08'0 0.0
2018-May-08 20:00N 26°04' W 080°08'0 0.0
2018-May-08 19:30N 26°04' W 080°08'0 0.0
2018-May-08 19:00N 26°04' W 080°08'0 0.0
2018-May-08 18:30N 26°04' W 080°08'2 3.7
2018-May-08 18:00N 26°05' W 080°07'4 8.9
2018-May-08 17:30N 26°04' W 080°02'510.3
2018-May-08 17:00N 26°02' W 079°57'510.6
2018-May-08 16:30N 26°01' W 079°51'510.6
2018-May-08 16:00N 25°59' W 079°45'6 0.1
2018-May-06 20:26N 26°04' W 079°44'4 9.1
2018-May-06 20:00N 26°05' W 079°48'5 9.2
2018-May-06 19:30N 26°05' W 079°53'5 9.5
2018-May-06 19:00N 26°05' W 079°58'5 9.6
2018-May-06 18:30N 26°05' W 080°04'3 5.9
2018-May-06 18:00N 26°04' W 080°07'1 2.0
2018-May-06 17:30N 26°04' W 080°08'0 0.0
2018-May-06 17:00N 26°04' W 080°08'0 0.0
2018-May-06 16:30N 26°04' W 080°08'0 0.0
2018-May-06 16:00N 26°04' W 080°08'0 0.0
2018-May-06 15:30N 26°04' W 080°08'0 0.0
2018-May-06 15:00N 26°04' W 080°08'0 0.0
2018-May-06 14:30N 26°04' W 080°08'0 0.0
2018-May-06 14:00N 26°04' W 080°08'0 0.0
2018-May-06 13:30N 26°04' W 080°08'0 0.0
2018-May-06 13:00N 26°04' W 080°08'0 0.0
2018-May-06 12:30N 26°04' W 080°08'0 0.0
2018-May-06 12:00N 26°04' W 080°08'2 3.0
2018-May-06 11:30N 26°05' W 080°07'4 8.4
2018-May-06 11:00N 26°06' W 080°02'5 9.0
2018-May-06 10:30N 26°05' W 079°57'4 8.6
2018-May-06 10:00N 26°03' W 079°53'4 8.4
2018-May-06 09:30N 26°02' W 079°48'4 8.5
2018-May-06 08:59N 26°01' W 079°44'4 8.4
2018-May-06 08:28N 25°59' W 079°39'  
2018-May-03 20:58N 26°26' W 079°59'510.0
2018-May-03 20:27N 26°21' W 080°00'4 9.7
2018-May-03 20:00N 26°17' W 080°01'5 9.3
2018-May-03 19:30N 26°12' W 080°03'4 9.0
2018-May-03 19:00N 26°08' W 080°04'4 7.5
2018-May-03 18:30N 26°05' W 080°07'2 3.6
2018-May-03 18:00N 26°04' W 080°08'0 0.0
2018-May-03 17:30N 26°04' W 080°08'0 0.0
2018-May-03 17:00N 26°04' W 080°08'0 0.0
2018-May-03 16:30N 26°04' W 080°08'0 0.0
2018-May-03 16:00N 26°04' W 080°08'0 0.0
2018-May-03 15:30N 26°04' W 080°08'0 0.0
2018-May-03 15:00N 26°04' W 080°08'0 0.0
2018-May-03 14:30N 26°04' W 080°08'0 0.0
2018-May-03 14:00N 26°04' W 080°08'0 0.0
2018-May-03 13:30N 26°04' W 080°08'0 0.0
2018-May-03 13:00N 26°04' W 080°08'0 0.0
2018-May-03 12:30N 26°04' W 080°08'0 0.0
2018-May-03 12:00N 26°04' W 080°08'1 2.7
2018-May-03 11:30N 26°05' W 080°07'3 6.8
2018-May-03 11:00N 26°05' W 080°03'4 8.5
2018-May-03 10:30N 26°05' W 079°58'3 6.9
2018-May-03 10:00N 26°05' W 079°55'4 6.9
2018-May-03 09:30N 26°05' W 079°51'3 7.0
2018-May-03 09:00N 26°04' W 079°47'4 7.5
2018-May-03 08:30N 26°04' W 079°43'4 7.6
2018-May-03 07:58N 26°03' W 079°38'2 0.1
2018-May-02 00:21N 26°02' W 079°39'3 7.5
2018-May-01 23:58N 26°02' W 079°43'3 7.2
2018-May-01 23:30N 26°03' W 079°46'3 6.0
2018-May-01 23:00N 26°04' W 079°49'4 7.5
2018-May-01 22:30N 26°04' W 079°54'4 7.9
2018-May-01 22:00N 26°04' W 079°58'4 8.1
2018-May-01 21:30N 26°05' W 080°02'4 8.2
2018-May-01 21:00N 26°05' W 080°07'2 4.1
2018-May-01 20:30N 26°04' W 080°08'0 0.0
2018-May-01 20:00N 26°04' W 080°08'0 0.0
2018-May-01 19:30N 26°04' W 080°08'0 0.0
2018-May-01 19:00N 26°04' W 080°08'0 0.0
2018-May-01 18:30N 26°04' W 080°08'0 0.0
2018-May-01 18:00N 26°04' W 080°08'0 0.0
2018-May-01 17:30N 26°04' W 080°08'0 0.0
2018-May-01 17:00N 26°04' W 080°08'0 0.0
2018-May-01 16:30N 26°04' W 080°08'0 0.0
2018-May-01 16:00N 26°04' W 080°08'1 1.8
2018-May-01 15:30N 26°04' W 080°07'3 6.4
2018-May-01 15:00N 26°05' W 080°04'4 8.2
2018-May-01 14:30N 26°06' W 079°59'3 6.3
2018-May-01 14:00N 26°08' W 079°56'3 5.8
2018-May-01 13:30N 26°09' W 079°53'4 7.2
2018-May-01 13:00N 26°10' W 079°49'3 6.5
2018-May-01 12:30N 26°11' W 079°46'4 7.0
2018-May-01 12:00N 26°12' W 079°42'3 6.7
2018-May-01 11:30N 26°13' W 079°39'3 6.3
2018-May-01 11:00N 26°14' W 079°35'3 6.2
2018-May-01 10:29N 26°15' W 079°32'69 7.3
2018-May-01 01:03N 26°07' W 078°16'010.3
2018-May-01 01:00N 26°07' W 078°15'510.4
2018-May-01 00:30N 26°05' W 078°10'510.4
2018-Apr-30 23:59N 26°03' W 078°04'510.2
2018-Apr-30 23:30N 26°01' W 077°59'510.2
2018-Apr-30 23:00N 25°59' W 077°54'510.6
2018-Apr-30 22:30N 25°57' W 077°48'510.6
2018-Apr-30 22:00N 25°56' W 077°43'3410.6
2018-Apr-30 18:45N 25°41' W 077°09'311.1
2018-Apr-30 18:29N 25°40' W 077°05'  

Dump ship's entire track history